Forest City, Missouri
Current Conditions -  °F | °C
As of 9:53 PM on Thursday 18 Dec 2014 (Local Time) from KSTJ Reporting Station
Haze Haze  
Wind Chill: 26°   Ceiling: 800
Heat Index: 31°   Visibility: 6mi
Dew Point: 28°   Wind: 5mph
Humidity: 89%   Direction: 100°E
Pressure: 30.28"   Gusts: NA
Location:  39.98°N, 95.19°W
Report Text: KSTJ 190353Z AUTO 10004KT 6SM BR OVC008 M01/M02 A3028 RMK AO2 SLP261 T10061022
Loading
Personal Weather Stations






























Interactive Weather Map New forecast layout! Learn more

10-Day Weather Forecast

Advertisements
Track Severe Weather on mobile